Time;durP1;ratioP1;P1;durP2;ratioP2;P2;SDS_P1;SDS_P2;PMS_P1;PMS_P2;Temp;Humidity;BMP_temperature;BMP_pressure;BME280_temperature;BME280_humidity;BME280_pressure;Samples;Min_cycle;Max_cycle;Signal;HPM_P1;HPM_P2
2022/10/04 00:00:32;;;;;;;15.80;8.77;;;11.60;99.90;;;;;;4768209;30;20126;-67
2022/10/04 00:03:31;;;;;;;14.63;8.05;;;11.60;99.90;;;;;;4743700;30;20056;-67
2022/10/04 00:05:58;;;;;;;15.38;8.93;;;11.60;99.90;;;;;;4756046;30;20097;-67
2022/10/04 00:08:35;;;;;;;11.82;9.02;;;11.50;99.90;;;;;;4730627;30;20059;-67
2022/10/04 00:11:12;;;;;;;12.45;8.52;;;11.60;99.90;;;;;;4744617;30;20421;-67
2022/10/04 00:13:39;;;;;;;13.32;7.72;;;11.60;99.90;;;;;;4767854;30;20131;-67
2022/10/04 00:16:05;;;;;;;15.57;7.25;;;11.60;99.90;;;;;;4770486;30;20060;-67
2022/10/04 00:18:40;;;;;;;16.67;8.70;;;11.60;99.90;;;;;;4741199;30;20052;-67
2022/10/04 00:21:07;;;;;;;13.82;8.85;;;11.60;99.90;;;;;;4752537;30;20063;-67
2022/10/04 00:23:36;;;;;;;11.98;8.60;;;11.60;99.90;;;;;;4763600;30;20055;-67
2022/10/04 00:26:14;;;;;;;13.95;9.80;;;11.60;99.90;;;;;;4750606;30;20378;-67
2022/10/04 00:28:45;;;;;;;21.58;10.18;;;11.50;99.90;;;;;;4751814;30;20052;-67
2022/10/04 00:31:13;;;;;;;13.18;9.52;;;11.60;99.90;;;;;;4763891;30;20063;-67
2022/10/04 00:33:44;;;;;;;11.82;9.02;;;11.60;99.90;;;;;;4758597;30;20060;-67
2022/10/04 00:37:08;;;;;;;14.50;9.68;;;11.50;99.90;;;;;;4752601;30;20072;-68
2022/10/04 00:39:33;;;;;;;17.92;9.98;;;11.50;99.90;;;;;;4731262;30;20418;-67
2022/10/04 00:42:16;;;;;;;14.88;9.85;;;11.50;99.90;;;;;;4729185;30;20063;-67
2022/10/04 00:44:53;;;;;;;12.70;9.02;;;11.50;99.90;;;;;;4731412;30;20056;-68
2022/10/04 00:47:29;;;;;;;15.60;9.60;;;11.50;99.90;;;;;;4731456;30;20092;-67
2022/10/04 00:50:02;;;;;;;11.75;9.52;;;11.50;99.90;;;;;;4713424;30;20059;-67
2022/10/04 00:52:31;;;;;;;17.05;9.82;;;11.50;99.90;;;;;;4730224;30;20174;-67
2022/10/04 00:55:02;;;;;;;13.32;9.10;;;11.50;99.90;;;;;;4720760;30;20515;-67
2022/10/04 00:57:44;;;;;;;15.82;9.32;;;11.50;99.90;;;;;;4714220;30;20063;-67
2022/10/04 01:00:18;;;;;;;12.82;8.82;;;11.50;99.90;;;;;;4714835;30;20057;-67
2022/10/04 01:03:01;;;;;;;15.25;10.05;;;11.50;99.90;;;;;;4714382;30;20127;-67
2022/10/04 01:05:34;;;;;;;19.85;9.63;;;11.50;99.90;;;;;;4715111;30;20523;-67
2022/10/04 01:08:08;;;;;;;15.52;9.85;;;11.50;99.90;;;;;;4713357;30;20109;-67
2022/10/04 01:10:44;;;;;;;13.23;9.48;;;11.50;99.90;;;;;;4716765;30;20136;-67
2022/10/04 01:13:18;;;;;;;16.30;9.45;;;11.60;99.90;;;;;;4743979;30;20450;-67
2022/10/04 01:16:07;;;;;;;17.23;9.57;;;11.40;99.90;;;;;;4767916;30;20130;-67
2022/10/04 01:18:34;;;;;;;13.95;8.40;;;11.40;99.90;;;;;;4756701;30;20060;-67
2022/10/04 01:21:06;;;;;;;13.75;9.25;;;11.40;99.90;;;;;;4749056;30;20052;-67
2022/10/04 01:23:36;;;;;;;15.10;9.18;;;11.40;99.90;;;;;;4744962;30;20059;-67
2022/10/04 01:26:29;;;;;;;12.73;8.73;;;11.40;99.90;;;;;;4741731;30;20064;-67
2022/10/04 01:28:54;;;;;;;;;;;11.30;99.90;;;;;;4733175;30;20499;-67
2022/10/04 01:31:20;;;;;;;13.15;8.88;;;11.30;99.90;;;;;;4735658;30;19926;-67
2022/10/04 01:33:46;;;;;;;12.48;8.80;;;11.30;99.90;;;;;;4768698;30;20417;-67
2022/10/04 01:36:12;;;;;;;14.45;9.30;;;11.40;99.90;;;;;;4754329;30;20394;-67
2022/10/04 01:38:38;;;;;;;11.05;9.30;;;11.40;99.90;;;;;;4755745;30;20112;-67
2022/10/04 01:41:06;;;;;;;15.85;8.80;;;11.40;99.90;;;;;;4771393;30;20059;-67
2022/10/04 01:43:36;;;;;;;10.77;8.52;;;11.40;99.90;;;;;;4766460;30;20064;-67
2022/10/04 01:46:08;;;;;;;14.68;9.05;;;11.40;99.90;;;;;;4773281;30;20070;-67
2022/10/04 01:48:37;;;;;;;19.27;10.07;;;11.40;99.90;;;;;;4772099;30;20052;-67
2022/10/04 01:51:27;;;;;;;13.88;9.60;;;11.40;99.90;;;;;;4765158;30;20105;-67
2022/10/04 01:53:52;;;;;;;15.05;9.02;;;11.40;99.90;;;;;;4761728;30;20059;-68
2022/10/04 01:56:25;;;;;;;12.43;8.98;;;11.40;99.90;;;;;;4754962;30;20068;-68
2022/10/04 01:58:57;;;;;;;14.77;8.57;;;11.40;99.90;;;;;;4770604;30;20071;-67
2022/10/04 02:01:42;;;;;;;16.67;9.98;;;11.50;99.90;;;;;;4772867;30;20102;-67
2022/10/04 02:04:14;;;;;;;14.48;9.32;;;11.40;99.90;;;;;;4721083;30;20115;-67
2022/10/04 02:06:43;;;;;;;14.98;9.95;;;11.50;99.90;;;;;;4732059;30;20067;-67
2022/10/04 02:09:16;;;;;;;13.93;9.13;;;11.50;99.90;;;;;;4769178;30;20120;-67
2022/10/04 02:11:43;;;;;;;14.60;8.75;;;11.50;99.90;;;;;;4752482;30;20095;-67
2022/10/04 02:14:16;;;;;;;14.68;8.45;;;11.50;99.90;;;;;;4772141;30;20101;-67
2022/10/04 02:16:43;;;;;;;;;;;11.50;99.90;;;;;;4754177;30;20048;-67
2022/10/04 02:19:10;;;;;;;15.70;8.20;;;11.50;99.90;;;;;;4772433;30;19925;-68
2022/10/04 02:21:40;;;;;;;10.45;8.85;;;11.40;99.90;;;;;;4743654;30;20060;-67
2022/10/04 02:24:08;;;;;;;12.20;9.05;;;11.40;99.90;;;;;;4766037;30;20055;-68
2022/10/04 02:26:59;;;;;;;14.45;9.60;;;11.40;99.90;;;;;;4756758;30;21036;-67
2022/10/04 02:29:25;;;;;;;12.35;9.55;;;11.40;99.90;;;;;;4770596;30;20131;-67
2022/10/04 02:38:33;;;;;;;14.43;9.45;;;11.20;99.90;;;;;;4761645;30;20070;-67
2022/10/04 02:41:42;;;;;;;16.17;8.95;;;11.20;99.90;;;;;;4767469;30;20063;-67
2022/10/04 02:44:19;;;;;;;17.15;9.35;;;11.10;99.90;;;;;;4731449;30;20064;-67
2022/10/04 02:46:53;;;;;;;15.70;10.18;;;11.10;99.90;;;;;;4751777;30;20109;-67
2022/10/04 02:49:28;;;;;;;14.25;9.25;;;11.00;99.90;;;;;;4766221;30;20498;-67
2022/10/04 02:52:06;;;;;;;17.90;9.68;;;11.00;99.90;;;;;;4770056;30;20052;-67
2022/10/04 02:54:55;;;;;;;12.85;9.18;;;10.90;99.90;;;;;;4768448;30;20124;-67
2022/10/04 02:57:22;;;;;;;11.25;8.90;;;10.90;99.90;;;;;;4743043;30;20056;-67
2022/10/04 02:59:49;;;;;;;13.85;8.73;;;10.90;99.90;;;;;;4754594;30;20119;-67
2022/10/04 03:02:25;;;;;;;12.23;9.55;;;10.80;99.90;;;;;;4756722;30;20056;-67
2022/10/04 03:04:54;;;;;;;12.48;9.60;;;10.80;99.90;;;;;;4754743;30;20056;-67
2022/10/04 03:07:21;;;;;;;11.95;9.32;;;10.80;99.90;;;;;;4770902;30;20458;-67
2022/10/04 03:09:48;;;;;;;15.52;9.90;;;10.70;99.90;;;;;;4767891;30;20060;-67
2022/10/04 03:12:14;;;;;;;14.80;8.70;;;10.70;99.90;;;;;;4751765;30;20486;-67
2022/10/04 03:14:41;;;;;;;11.25;8.43;;;10.70;99.90;;;;;;4765424;30;20064;-67
2022/10/04 03:17:07;;;;;;;13.73;9.07;;;10.70;99.90;;;;;;4740592;30;20181;-67
2022/10/04 03:19:34;;;;;;;16.42;9.63;;;10.60;99.90;;;;;;4752095;30;20048;-67
2022/10/04 03:22:18;;;;;;;13.48;9.40;;;10.70;99.90;;;;;;4769325;30;20444;-67
2022/10/04 03:24:46;;;;;;;18.50;9.63;;;10.70;99.90;;;;;;4764365;30;20048;-67
2022/10/04 03:27:23;;;;;;;13.07;8.70;;;10.60;99.90;;;;;;4767697;30;20155;-68
2022/10/04 03:29:49;;;;;;;13.82;8.38;;;10.60;99.90;;;;;;4758830;30;20186;-67
2022/10/04 03:32:17;;;;;;;16.13;9.90;;;10.60;99.90;;;;;;4751565;30;20142;-68
2022/10/04 03:34:56;;;;;;;13.20;9.32;;;10.70;99.90;;;;;;4762657;30;20051;-67
2022/10/04 03:37:24;;;;;;;10.82;8.68;;;10.50;99.90;;;;;;4758802;30;20370;-67
2022/10/04 03:39:52;;;;;;;17.65;9.43;;;10.50;99.90;;;;;;4762710;30;20149;-67
2022/10/04 03:42:23;;;;;;;11.65;8.50;;;10.40;99.90;;;;;;4755973;30;20141;-67
2022/10/04 03:44:52;;;;;;;12.10;9.13;;;10.40;99.90;;;;;;4750698;30;20051;-67
2022/10/04 03:47:40;;;;;;;17.63;10.38;;;10.30;99.90;;;;;;4759566;30;20083;-67
2022/10/04 03:50:15;;;;;;;15.65;10.25;;;10.30;99.90;;;;;;4749590;30;20070;-67
2022/10/04 03:52:47;;;;;;;15.77;9.68;;;10.20;99.90;;;;;;4768837;30;20111;-68
2022/10/04 03:55:15;;;;;;;18.77;10.00;;;10.30;99.90;;;;;;4766860;30;20060;-67
2022/10/04 03:57:41;;;;;;;13.05;9.30;;;10.10;99.90;;;;;;4746448;30;20056;-67
2022/10/04 04:00:07;;;;;;;18.40;11.30;;;10.10;99.90;;;;;;4759499;30;20430;-67
2022/10/04 04:02:41;;;;;;;18.30;10.82;;;10.10;99.90;;;;;;4767903;30;20055;-67
2022/10/04 04:05:12;;;;;;;18.13;11.07;;;10.10;99.90;;;;;;4760522;30;20485;-67
2022/10/04 04:08:13;;;;;;;13.23;10.15;;;10.10;99.90;;;;;;4769152;30;20151;-67
2022/10/04 04:10:42;;;;;;;17.05;11.50;;;10.10;99.90;;;;;;4750561;30;20489;-67
2022/10/04 04:13:48;;;;;;;15.93;10.48;;;10.00;99.90;;;;;;4746975;30;20071;-67
2022/10/04 04:17:05;;;;;;;15.93;10.95;;;10.00;99.90;;;;;;4755826;29;20136;-67
2022/10/04 04:19:32;;;;;;;14.80;10.52;;;9.90;99.90;;;;;;4727342;30;20118;-67
2022/10/04 04:21:58;;;;;;;16.65;11.63;;;9.90;99.90;;;;;;4744589;30;20102;-66
2022/10/04 04:24:30;;;;;;;22.60;11.40;;;9.90;99.90;;;;;;4745027;30;20460;-67
2022/10/04 04:26:58;;;;;;;;;;;9.90;99.90;;;;;;4746118;30;20092;-68
2022/10/04 04:29:50;;;;;;;16.90;10.63;;;9.90;99.90;;;;;;4753468;30;20049;-67
2022/10/04 04:32:23;;;;;;;15.00;10.20;;;9.80;99.90;;;;;;4760506;30;20144;-67
2022/10/04 04:35:05;;;;;;;18.52;10.80;;;9.80;99.90;;;;;;4751897;30;20545;-67
2022/10/04 04:37:32;;;;;;;19.15;12.25;;;9.80;99.90;;;;;;4752325;30;20483;-67
2022/10/04 04:40:21;;;;;;;19.60;11.95;;;9.80;99.90;;;;;;4757282;30;20062;-67
2022/10/04 04:42:48;;;;;;;20.00;12.57;;;9.80;99.90;;;;;;4762256;30;20104;-68
2022/10/04 04:45:17;;;;;;;15.60;12.43;;;9.80;99.90;;;;;;4748950;30;20075;-67
2022/10/04 04:47:46;;;;;;;19.25;11.80;;;9.70;99.90;;;;;;4761545;30;20447;-67
2022/10/04 04:50:22;;;;;;;19.00;12.85;;;9.70;99.90;;;;;;4750461;30;20413;-67
2022/10/04 04:52:56;;;;;;;19.33;13.25;;;9.70;99.90;;;;;;4736037;30;20071;-67
2022/10/04 04:55:26;;;;;;;14.95;12.15;;;9.70;99.90;;;;;;4758386;30;20067;-67
2022/10/04 04:57:55;;;;;;;18.15;12.02;;;9.70;99.90;;;;;;4766979;30;20087;-67
2022/10/04 05:00:27;;;;;;;16.42;12.80;;;9.60;99.90;;;;;;4736138;30;20118;-67
2022/10/04 05:02:55;;;;;;;15.82;13.02;;;9.60;99.90;;;;;;4736114;30;20071;-67
2022/10/04 05:09:31;;;;;;;17.67;12.87;;;9.60;99.90;;;;;;4744589;30;20048;-67
2022/10/04 05:12:06;;;;;;;15.57;12.65;;;9.60;99.90;;;;;;4748103;30;20441;-67
2022/10/04 05:14:36;;;;;;;19.48;12.65;;;9.60;99.90;;;;;;4733259;30;20405;-67
2022/10/04 05:17:03;;;;;;;18.25;13.15;;;9.60;99.90;;;;;;4754213;30;20060;-67
2022/10/04 05:19:38;;;;;;;18.80;14.50;;;9.60;99.90;;;;;;4755728;30;20048;-67
2022/10/04 05:22:11;;;;;;;19.17;13.10;;;9.60;99.90;;;;;;4750893;30;20075;-67
2022/10/04 05:24:45;;;;;;;24.38;14.23;;;9.60;99.90;;;;;;4748269;30;20052;-66
2022/10/04 05:27:22;;;;;;;22.98;15.13;;;9.60;99.90;;;;;;4752500;30;20063;-66
2022/10/04 05:30:28;;;;;;;19.33;14.88;;;9.60;99.90;;;;;;4751220;30;20476;-68
2022/10/04 05:33:01;;;;;;;21.45;14.95;;;9.50;99.90;;;;;;4745696;30;20131;-67
2022/10/04 05:35:28;;;;;;;20.45;15.95;;;9.50;99.90;;;;;;4756425;30;20418;-67
2022/10/04 05:38:26;;;;;;;20.98;14.88;;;9.50;99.90;;;;;;4767340;30;20096;-67
2022/10/04 05:41:05;;;;;;;21.10;14.20;;;9.60;99.90;;;;;;4769708;30;20082;-67
2022/10/04 05:43:33;;;;;;;22.35;15.25;;;9.50;99.90;;;;;;4755105;30;20091;-66
2022/10/04 05:46:20;;;;;;;20.27;14.38;;;9.50;99.90;;;;;;4746918;30;20099;-67
2022/10/04 05:49:08;;;;;;;19.90;13.95;;;9.50;99.90;;;;;;4750238;30;20060;-67
2022/10/04 05:51:46;;;;;;;20.70;14.65;;;9.40;99.90;;;;;;4754016;30;20056;-67
2022/10/04 05:54:12;;;;;;;25.63;16.73;;;9.40;99.90;;;;;;4754772;30;20159;-66
2022/10/04 05:57:11;;;;;;;26.80;17.02;;;9.40;99.90;;;;;;4754585;30;20096;-67
2022/10/04 06:00:08;;;;;;;24.13;15.98;;;9.50;99.90;;;;;;4755773;30;20060;-67
2022/10/04 06:02:54;;;;;;;23.55;16.02;;;9.40;99.90;;;;;;4753765;30;20177;-66
2022/10/04 06:05:38;;;;;;;27.08;16.45;;;9.40;99.90;;;;;;4760229;30;20113;-67
2022/10/04 06:08:18;;;;;;;22.08;15.50;;;9.50;99.90;;;;;;4755774;30;20059;-67
2022/10/04 06:10:50;;;;;;;24.52;16.88;;;9.40;99.90;;;;;;4772391;30;20142;-67
2022/10/04 06:13:29;;;;;;;23.48;16.90;;;9.50;99.90;;;;;;4772512;30;20059;-67
2022/10/04 06:16:38;;;;;;;22.77;16.25;;;9.40;99.90;;;;;;4739542;30;20121;-67
2022/10/04 06:19:30;;;;;;;26.98;16.40;;;9.50;99.90;;;;;;4737287;30;20526;-67
2022/10/04 06:22:17;;;;;;;23.90;17.50;;;9.50;99.90;;;;;;4746553;30;20109;-67
2022/10/04 06:24:48;;;;;;;20.58;15.02;;;9.50;99.90;;;;;;4752983;30;20063;-67
2022/10/04 06:27:20;;;;;;;22.38;17.00;;;9.50;99.90;;;;;;4753566;30;20128;-67
2022/10/04 06:29:54;;;;;;;21.88;16.50;;;9.50;99.90;;;;;;4747443;30;20178;-67
2022/10/04 06:32:29;;;;;;;25.77;16.88;;;9.50;99.90;;;;;;4764600;30;20052;-67
2022/10/04 06:34:58;;;;;;;27.33;18.67;;;9.50;99.90;;;;;;4755061;30;20155;-67
2022/10/04 06:37:57;;;;;;;25.20;17.85;;;9.50;99.90;;;;;;4758624;30;20435;-68
2022/10/04 06:40:39;;;;;;;23.83;17.15;;;9.60;99.90;;;;;;4732342;30;20495;-67
2022/10/04 06:43:46;;;;;;;29.00;17.75;;;9.60;99.90;;;;;;4744900;30;20139;-66
2022/10/04 06:46:49;;;;;;;25.17;17.67;;;9.60;99.90;;;;;;4728992;30;20064;-67
2022/10/04 06:49:29;;;;;;;24.95;18.30;;;9.70;99.90;;;;;;4721412;30;20470;-67
2022/10/04 06:52:18;;;;;;;21.73;17.00;;;9.70;99.90;;;;;;4736484;30;20076;-67
2022/10/04 06:54:59;;;;;;;28.27;18.52;;;9.70;99.90;;;;;;4745435;30;20111;-67
2022/10/04 06:58:07;;;;;;;23.98;17.77;;;9.80;99.90;;;;;;4751162;30;20067;-67
2022/10/04 07:00:44;;;;;;;31.08;19.90;;;9.80;99.90;;;;;;4748721;30;20549;-67
2022/10/04 07:03:35;;;;;;;26.67;20.30;;;10.00;99.90;;;;;;4753540;30;20055;-67
2022/10/04 07:06:04;;;;;;;25.92;19.02;;;10.10;99.90;;;;;;4763133;30;20125;-67
2022/10/04 07:08:49;;;;;;;27.98;20.45;;;10.30;99.90;;;;;;4771194;30;20056;-67
2022/10/04 07:11:41;;;;;;;27.17;19.05;;;10.50;99.90;;;;;;4738957;30;20068;-67
2022/10/04 07:14:30;;;;;;;26.75;19.88;;;10.70;99.90;;;;;;4751781;30;20060;-67
2022/10/04 07:17:09;;;;;;;24.52;19.77;;;11.00;99.90;;;;;;4751595;30;20070;-67
2022/10/04 07:19:40;;;;;;;24.70;18.20;;;11.10;99.90;;;;;;4752075;30;20071;-67
2022/10/04 07:22:05;;;;;;;23.15;18.92;;;11.20;99.90;;;;;;4771454;30;20147;-67
2022/10/04 07:45:26;;;;;;;22.23;15.93;;;11.90;99.90;;;;;;4733733;30;20063;-67
2022/10/04 08:08:06;;;;;;;16.77;14.18;;;12.90;99.90;;;;;;4770501;30;20089;-68
2022/10/04 08:15:07;;;;;;;18.83;13.55;;;13.20;99.90;;;;;;4714690;30;20530;-68
2022/10/04 08:17:57;;;;;;;15.98;13.70;;;13.40;99.90;;;;;;4735838;30;20513;-67
2022/10/04 08:20:34;;;;;;;15.82;12.57;;;13.60;99.90;;;;;;4755517;30;20055;-67
2022/10/04 08:23:08;;;;;;;16.35;12.60;;;13.70;99.90;;;;;;4757885;30;20048;-67
2022/10/04 08:26:24;;;;;;;15.32;12.52;;;13.70;99.90;;;;;;4740265;30;20110;-67
2022/10/04 08:32:51;;;;;;;14.90;12.52;;;13.60;99.90;;;;;;4752534;30;20068;-67
2022/10/04 08:35:54;;;;;;;16.38;11.63;;;13.50;99.90;;;;;;4729438;30;20068;-67
2022/10/04 08:38:58;;;;;;;16.92;12.27;;;13.30;99.90;;;;;;4702852;30;20076;-68
2022/10/04 08:41:44;;;;;;;15.93;11.98;;;13.30;99.90;;;;;;4699757;30;20099;-68
2022/10/04 08:48:31;;;;;;;14.35;10.27;;;13.50;99.90;;;;;;4713973;30;20461;-67
2022/10/04 08:51:34;;;;;;;16.27;9.60;;;13.70;99.90;;;;;;4733250;30;20486;-68
2022/10/04 08:54:15;;;;;;;;;;;13.90;99.90;;;;;;4761479;30;20181;-67
2022/10/04 09:07:46;;;;;;;11.05;9.43;;;14.20;99.90;;;;;;4769791;30;20095;-67
2022/10/04 09:10:43;;;;;;;12.27;9.60;;;14.30;99.90;;;;;;4753362;30;20058;-68
2022/10/04 09:13:29;;;;;;;13.52;9.88;;;14.40;99.90;;;;;;4740722;30;20060;-68
2022/10/04 09:16:12;;;;;;;13.05;9.60;;;14.40;99.90;;;;;;4753800;30;20055;-68
2022/10/04 09:19:15;;;;;;;14.05;9.70;;;14.50;99.90;;;;;;4769413;30;20067;-68
2022/10/04 09:21:56;;;;;;;12.43;10.60;;;14.60;99.90;;;;;;4754691;30;20069;-68
2022/10/04 09:24:33;;;;;;;13.18;10.43;;;14.70;99.90;;;;;;4735551;30;20491;-68
2022/10/04 09:27:18;;;;;;;11.70;9.52;;;14.70;99.90;;;;;;4749813;30;20514;-68
2022/10/04 09:30:16;;;;;;;10.88;9.77;;;14.70;99.90;;;;;;4768317;30;20056;-68
2022/10/04 09:33:02;;;;;;;14.27;10.00;;;14.70;99.90;;;;;;4753862;30;20056;-67
2022/10/04 09:36:03;;;;;;;12.68;9.77;;;14.80;99.90;;;;;;4742582;30;20067;-68
2022/10/04 09:38:58;;;;;;;9.45;8.57;;;14.90;99.90;;;;;;4751182;30;20063;-68
2022/10/04 09:41:33;;;;;;;12.77;9.10;;;;;;;;;;4735474;30;20067;-67
2022/10/04 09:44:17;;;;;;;12.60;9.13;;;15.10;99.90;;;;;;4751476;30;20064;-68
2022/10/04 09:47:11;;;;;;;10.15;8.43;;;15.20;99.90;;;;;;4735790;30;20634;-67
2022/10/04 09:49:59;;;;;;;12.70;8.30;;;15.30;99.90;;;;;;4750764;30;20895;-69
2022/10/04 09:53:05;;;;;;;12.98;8.77;;;15.40;99.90;;;;;;4747223;30;20060;-69
2022/10/04 09:55:49;;;;;;;14.30;8.45;;;15.50;99.90;;;;;;4734941;30;20151;-68
2022/10/04 09:58:45;;;;;;;15.15;8.20;;;15.60;99.90;;;;;;4734505;30;20053;-69
2022/10/04 10:01:34;;;;;;;10.82;8.07;;;15.70;99.90;;;;;;4752346;30;20056;-68
2022/10/04 10:04:31;;;;;;;11.48;7.88;;;15.80;99.90;;;;;;4748174;30;20052;-68
2022/10/04 10:07:09;;;;;;;9.98;7.78;;;15.90;99.90;;;;;;4754109;30;20082;-68
2022/10/04 10:15:57;;;;;;;11.73;7.97;;;16.00;99.90;;;;;;4737918;30;20068;-68
2022/10/04 10:18:44;;;;;;;10.05;8.38;;;16.10;99.90;;;;;;4753345;30;20143;-69
2022/10/04 10:21:13;;;;;;;12.00;7.88;;;16.10;99.90;;;;;;4752367;30;20059;-69
2022/10/04 10:23:57;;;;;;;10.88;8.38;;;16.20;99.90;;;;;;4753982;30;20096;-68
2022/10/04 10:26:23;;;;;;;10.15;8.25;;;16.30;99.90;;;;;;4759383;30;20064;-68
2022/10/04 10:29:10;;;;;;;11.23;8.52;;;16.30;99.90;;;;;;4772077;30;20074;-69
2022/10/04 10:31:55;;;;;;;11.57;8.93;;;16.30;99.90;;;;;;4754503;30;20378;-68
2022/10/04 10:34:51;;;;;;;12.25;8.55;;;16.30;99.90;;;;;;4755196;30;20058;-69
2022/10/04 10:37:42;;;;;;;8.05;6.22;;;16.40;99.90;;;;;;4772285;30;20082;-68
2022/10/04 10:40:39;;;;;;;10.65;6.65;;;16.40;99.90;;;;;;4770657;30;20052;-69
2022/10/04 10:43:20;;;;;;;10.27;6.72;;;16.30;99.90;;;;;;4749042;30;20040;-68
2022/10/04 10:46:03;;;;;;;11.30;6.53;;;16.30;99.90;;;;;;4742776;30;20426;-68
2022/10/04 10:48:35;;;;;;;11.95;7.15;;;;;;;;;;4737630;30;20060;-68
2022/10/04 10:51:21;;;;;;;9.55;7.35;;;16.50;99.90;;;;;;4752746;30;20135;-68
2022/10/04 10:54:05;;;;;;;11.00;5.47;;;16.60;99.90;;;;;;4756559;30;20062;-68
2022/10/04 10:57:05;;;;;;;6.80;6.15;;;16.60;99.90;;;;;;4753965;30;20095;-69
2022/10/04 11:00:00;;;;;;;9.30;6.30;;;16.70;99.90;;;;;;4766132;30;20048;-68
2022/10/04 11:02:48;;;;;;;8.88;5.57;;;16.70;99.90;;;;;;4769136;30;20063;-68
2022/10/04 11:05:37;;;;;;;7.57;5.53;;;16.80;99.90;;;;;;4755410;30;20059;-68
2022/10/04 11:08:26;;;;;;;12.60;6.00;;;16.80;99.90;;;;;;4769616;30;20139;-68
2022/10/04 11:11:00;;;;;;;8.18;5.80;;;16.90;99.90;;;;;;4755573;30;20070;-68
2022/10/04 11:13:41;;;;;;;7.55;6.00;;;16.90;99.90;;;;;;4767868;30;20062;-66
2022/10/04 11:16:34;;;;;;;9.02;5.25;;;16.90;99.90;;;;;;4752078;30;20088;-68
2022/10/04 11:19:22;;;;;;;6.10;4.80;;;17.00;99.90;;;;;;4752105;30;20064;-68
2022/10/04 11:22:24;;;;;;;8.15;5.20;;;17.10;99.90;;;;;;4752100;30;20052;-68
2022/10/04 11:25:24;;;;;;;8.30;6.30;;;17.10;99.90;;;;;;4751714;30;20395;-67
2022/10/04 11:27:55;;;;;;;8.00;5.80;;;17.20;99.90;;;;;;4753390;30;20139;-68
2022/10/04 11:30:28;;;;;;;8.57;5.57;;;17.20;99.90;;;;;;4752193;30;20110;-68
2022/10/04 11:33:09;;;;;;;9.82;5.60;;;17.30;99.90;;;;;;4751479;30;20052;-68
2022/10/04 11:36:07;;;;;;;8.48;5.40;;;17.20;99.90;;;;;;4751909;30;20047;-68
2022/10/04 11:39:13;;;;;;;8.55;5.45;;;17.20;99.90;;;;;;4751200;30;20063;-69
2022/10/04 11:41:50;;;;;;;8.75;6.10;;;17.30;99.90;;;;;;4751926;30;20067;-68
2022/10/04 11:45:03;;;;;;;9.32;6.18;;;17.20;99.90;;;;;;4737080;30;20111;-68
2022/10/04 11:47:38;;;;;;;;;;;17.20;99.90;;;;;;4722472;30;20048;-68
2022/10/04 11:50:21;;;;;;;10.43;6.68;;;17.20;99.90;;;;;;4751115;30;19926;-67
2022/10/04 11:53:24;;;;;;;9.05;6.57;;;17.30;99.90;;;;;;4751674;30;20117;-67
2022/10/04 11:56:22;;;;;;;11.30;7.50;;;17.40;99.90;;;;;;4752906;30;20382;-68
2022/10/04 11:59:09;;;;;;;12.38;7.03;;;17.40;99.90;;;;;;4751325;30;20084;-67
2022/10/04 12:02:03;;;;;;;8.80;6.63;;;17.40;99.90;;;;;;4751150;30;20140;-67
2022/10/04 12:05:06;;;;;;;9.40;7.10;;;17.40;99.90;;;;;;4752190;30;20071;-68
2022/10/04 12:08:08;;;;;;;11.23;7.15;;;17.40;99.90;;;;;;4736724;30;20060;-67
2022/10/04 12:10:37;;;;;;;7.95;6.72;;;17.40;99.90;;;;;;4752429;30;20528;-67
2022/10/04 12:13:40;;;;;;;13.00;7.45;;;17.40;99.90;;;;;;4736651;30;20079;-68
2022/10/04 12:16:17;;;;;;;9.18;6.63;;;17.50;99.90;;;;;;4751651;30;20414;-68
2022/10/04 12:18:43;;;;;;;8.50;6.45;;;17.40;99.90;;;;;;4751920;30;20063;-67
2022/10/04 12:21:41;;;;;;;9.65;6.47;;;17.40;99.90;;;;;;4751257;30;20125;-68
2022/10/04 12:24:46;;;;;;;9.35;5.75;;;17.30;99.90;;;;;;4736366;30;20409;-68
2022/10/04 12:27:27;;;;;;;7.88;5.70;;;17.40;99.90;;;;;;4752523;30;20064;-67
2022/10/04 12:30:20;;;;;;;10.18;6.22;;;17.50;99.90;;;;;;4750964;30;20498;-67
2022/10/04 12:33:15;;;;;;;7.18;5.53;;;17.50;99.90;;;;;;4753461;30;20524;-68
2022/10/04 12:36:03;;;;;;;8.95;5.90;;;17.50;99.90;;;;;;4752750;30;20358;-68
2022/10/04 12:38:56;;;;;;;9.00;5.72;;;17.50;99.90;;;;;;4750197;30;20072;-67
2022/10/04 12:41:33;;;;;;;7.45;5.40;;;17.50;99.90;;;;;;4752071;30;20085;-67
2022/10/04 12:44:14;;;;;;;6.85;5.05;;;17.50;99.90;;;;;;4750606;30;20051;-68
2022/10/04 12:47:02;;;;;;;10.50;6.45;;;17.60;99.90;;;;;;4736015;30;20577;-68
2022/10/04 12:50:03;;;;;;;9.98;6.78;;;17.70;99.90;;;;;;4735655;30;20052;-67
2022/10/04 12:52:40;;;;;;;9.38;6.55;;;17.70;99.90;;;;;;4736353;30;20055;-67
2022/10/04 12:55:36;;;;;;;8.98;7.22;;;17.70;99.90;;;;;;4750331;30;20155;-68
2022/10/04 12:58:15;;;;;;;9.85;6.60;;;17.70;99.90;;;;;;4728213;30;20067;-67
2022/10/04 13:00:42;;;;;;;9.93;6.32;;;17.70;99.90;;;;;;4736407;30;20135;-67
2022/10/04 13:03:17;;;;;;;12.90;6.45;;;17.80;99.90;;;;;;4751837;30;20059;-67
2022/10/04 13:05:46;;;;;;;10.45;7.07;;;17.80;99.90;;;;;;4736227;30;20425;-67
2022/10/04 13:08:19;;;;;;;9.82;6.45;;;17.80;99.90;;;;;;4735670;30;20161;-67
2022/10/04 13:10:57;;;;;;;8.40;6.28;;;17.80;99.90;;;;;;4751348;30;20063;-67
2022/10/04 13:14:00;;;;;;;10.38;6.68;;;17.80;99.90;;;;;;4744925;30;20387;-67
2022/10/04 13:33:28;;;;;;;9.57;6.85;;;17.80;99.90;;;;;;4736833;30;20517;-67
2022/10/04 13:35:56;;;;;;;10.93;6.78;;;17.80;99.90;;;;;;4751207;30;20056;-68
2022/10/04 13:38:52;;;;;;;9.50;6.95;;;17.70;99.90;;;;;;4754600;30;20091;-67
2022/10/04 13:41:35;;;;;;;9.43;6.70;;;17.60;99.90;;;;;;4754138;30;20354;-67
2022/10/04 13:44:39;;;;;;;9.82;6.63;;;17.50;99.90;;;;;;4754245;30;20064;-68
2022/10/04 13:47:58;;;;;;;10.63;6.28;;;17.40;99.90;;;;;;4755160;30;20135;-67
2022/10/04 13:57:36;;;;;;;10.38;6.68;;;17.50;99.90;;;;;;4754987;30;20052;-67
2022/10/04 14:04:29;;;;;;;8.75;6.35;;;17.70;99.90;;;;;;4753930;30;20059;-67
2022/10/04 14:07:07;;;;;;;11.23;6.50;;;17.70;99.90;;;;;;4755714;30;20082;-67
2022/10/04 14:10:02;;;;;;;10.05;6.75;;;17.60;99.90;;;;;;4754116;30;20052;-67
2022/10/04 14:12:43;;;;;;;13.25;7.35;;;17.70;99.90;;;;;;4754194;30;20131;-67
2022/10/04 14:15:23;;;;;;;9.32;6.22;;;17.70;99.90;;;;;;4756943;30;20060;-67
2022/10/04 14:17:53;;;;;;;9.93;6.88;;;;;;;;;;4753268;30;20539;-67
2022/10/04 14:20:54;;;;;;;10.60;6.97;;;;;;;;;;4753735;30;20053;-67
2022/10/04 14:23:20;;;;;;;11.77;5.82;;;;;;;;;;4753391;30;20118;-67
2022/10/04 14:26:18;;;;;;;11.20;6.15;;;17.80;99.90;;;;;;4754635;30;20064;-67
2022/10/04 14:29:43;;;;;;;9.55;5.93;;;17.90;99.90;;;;;;4752343;30;20051;-67
2022/10/04 14:32:54;;;;;;;7.90;4.72;;;17.80;99.90;;;;;;4657403;30;20062;-67
2022/10/04 14:35:28;;;;;;;7.72;4.72;;;17.70;99.90;;;;;;4668147;30;20527;-67
2022/10/04 14:38:28;;;;;;;10.10;5.60;;;17.70;99.90;;;;;;4752534;30;20056;-68
2022/10/04 14:44:47;;;;;;;7.43;4.43;;;17.60;99.90;;;;;;4752843;30;20064;-67
2022/10/04 14:47:41;;;;;;;7.38;5.38;;;17.60;99.90;;;;;;4752847;30;20064;-67
2022/10/04 14:50:25;;;;;;;9.07;5.35;;;17.60;99.90;;;;;;4723321;30;20097;-67
2022/10/04 14:53:33;;;;;;;;;;;;;;;;;;;;;
2022/10/04 14:56:25;;;;;;;;;;;17.50;99.90;;;;;;4736969;30;20111;-67
2022/10/04 14:59:35;;;;;;;8.90;5.38;;;17.30;99.90;;;;;;4741760;30;20300;-68
2022/10/04 15:02:29;;;;;;;8.05;5.40;;;17.30;99.90;;;;;;4753622;30;20067;-68
2022/10/04 15:05:37;;;;;;;7.93;5.55;;;17.30;99.90;;;;;;4753159;30;20131;-67
2022/10/04 15:08:31;;;;;;;9.10;6.03;;;17.30;99.90;;;;;;4752120;30;20425;-68
2022/10/04 15:11:02;;;;;;;9.73;5.88;;;17.30;99.90;;;;;;4754157;30;20498;-68
2022/10/04 15:13:36;;;;;;;9.35;5.78;;;17.30;99.90;;;;;;4753212;30;20415;-69
2022/10/04 15:16:35;;;;;;;9.40;5.70;;;17.30;99.90;;;;;;4737677;30;20418;-68
2022/10/04 15:19:11;;;;;;;9.98;5.65;;;17.30;99.90;;;;;;4737430;30;20052;-68
2022/10/04 15:21:58;;;;;;;11.57;5.47;;;17.10;99.90;;;;;;4752297;30;20072;-68
2022/10/04 15:24:43;;;;;;;8.00;5.05;;;17.10;99.90;;;;;;4753141;30;20060;-68
2022/10/04 15:27:37;;;;;;;8.18;4.80;;;17.00;99.90;;;;;;4753594;30;20091;-68
2022/10/04 15:33:42;;;;;;;9.55;5.57;;;16.80;99.90;;;;;;4753004;30;20056;-68
2022/10/04 15:36:10;;;;;;;9.18;5.70;;;16.70;99.90;;;;;;4752431;30;20515;-68
2022/10/04 15:42:34;;;;;;;11.77;5.45;;;16.50;99.90;;;;;;4769338;30;20146;-68
2022/10/04 15:45:20;;;;;;;11.02;5.90;;;16.50;99.90;;;;;;4766216;30;20058;-68
2022/10/04 15:48:01;;;;;;;10.30;5.90;;;16.50;99.90;;;;;;4757382;30;20101;-68
2022/10/04 15:50:54;;;;;;;9.88;6.45;;;16.50;99.90;;;;;;4737426;30;20074;-69
2022/10/04 15:53:43;;;;;;;11.48;6.68;;;16.50;99.90;;;;;;4747361;30;20068;-67
2022/10/04 15:56:12;;;;;;;10.88;5.95;;;16.50;99.90;;;;;;4756019;30;20134;-68